Time;durP1;ratioP1;P1;durP2;ratioP2;P2;SDS_P1;SDS_P2;PMS_P1;PMS_P2;Temp;Humidity;BMP_temperature;BMP_pressure;BME280_temperature;BME280_humidity;BME280_pressure;Samples;Min_cycle;Max_cycle;Signal;HPM_P1;HPM_P2
2021/12/19 03:00:36;;;;;;;1.33;1.00;;;30.60;47.90;;;;;;4864681;26;20495;-69
2021/12/19 03:03:03;;;;;;;3.92;1.00;;;30.60;46.30;;;;;;5033694;28;20053;-68
2021/12/19 03:05:32;;;;;;;1.50;1.10;;;30.60;47.30;;;;;;5014423;28;20184;-70
2021/12/19 03:08:02;;;;;;;1.23;1.00;;;30.70;48.90;;;;;;5013937;28;20079;-70
2021/12/19 03:18:30;;;;;;;1.38;1.10;;;30.80;47.50;;;;;;5023285;28;20111;-67
2021/12/19 03:20:57;;;;;;;2.90;1.10;;;30.80;47.10;;;;;;5031765;28;20200;-69
2021/12/19 03:23:24;;;;;;;2.22;1.00;;;30.90;46.50;;;;;;5014253;28;20099;-68
2021/12/19 03:25:52;;;;;;;0.70;0.70;;;30.90;46.50;;;;;;5030273;28;20041;-68
2021/12/19 03:28:19;;;;;;;2.70;1.10;;;31.00;45.50;;;;;;5030042;28;20029;-68
2021/12/19 03:30:47;;;;;;;2.50;0.90;;;31.00;45.50;;;;;;5030260;28;20030;-68
2021/12/19 03:33:14;;;;;;;1.33;0.80;;;31.10;45.70;;;;;;5031887;28;20034;-68
2021/12/19 03:35:42;;;;;;;1.75;1.00;;;31.00;44.70;;;;;;5027469;28;20021;-68
2021/12/19 03:38:11;;;;;;;1.38;1.00;;;30.90;44.30;;;;;;5028527;28;20048;-69
2021/12/19 03:40:44;;;;;;;1.38;0.82;;;30.80;44.70;;;;;;5020929;28;20083;-69
2021/12/19 03:43:14;;;;;;;1.45;0.80;;;30.80;44.50;;;;;;5031915;28;20041;-69
2021/12/19 03:45:42;;;;;;;3.28;1.25;;;30.70;44.60;;;;;;5032086;28;20046;-68
2021/12/19 03:48:12;;;;;;;1.10;0.93;;;30.60;45.20;;;;;;5026589;28;20083;-69
2021/12/19 03:50:43;;;;;;;4.90;1.15;;;30.60;45.30;;;;;;5013177;28;20434;-69
2021/12/19 03:53:11;;;;;;;3.55;1.13;;;30.50;45.90;;;;;;5032023;28;20037;-68
2021/12/19 03:55:39;;;;;;;2.22;1.02;;;30.40;46.10;;;;;;5027713;28;20034;-69
2021/12/19 03:58:06;;;;;;;1.17;0.90;;;30.40;46.60;;;;;;5025088;28;20034;-69
2021/12/19 05:50:54;;;;;;;1.33;0.90;;;29.20;46.50;;;;;;5022836;28;20198;-67
2021/12/19 05:53:21;;;;;;;2.95;1.00;;;29.20;46.90;;;;;;5039882;28;20037;-68
2021/12/19 05:55:48;;;;;;;1.13;0.90;;;29.20;47.10;;;;;;5049022;28;20090;-69
2021/12/19 05:58:15;;;;;;;6.78;1.05;;;29.20;46.90;;;;;;5048113;28;20052;-68
2021/12/19 06:00:42;;;;;;;1.83;1.20;;;29.10;46.30;;;;;;5048236;28;20068;-67
2021/12/19 06:03:10;;;;;;;1.20;0.90;;;29.10;46.70;;;;;;5049555;28;20499;-71
2021/12/19 06:05:37;;;;;;;3.53;1.10;;;29.10;47.60;;;;;;5031405;28;20102;-68
2021/12/19 06:08:05;;;;;;;2.50;1.00;;;29.10;48.70;;;;;;5040701;28;20033;-68
2021/12/19 06:10:32;;;;;;;1.50;0.90;;;28.90;49.00;;;;;;5048047;28;20029;-69
2021/12/19 06:13:00;;;;;;;2.45;1.00;;;28.80;48.90;;;;;;5044750;28;20029;-69
2021/12/19 06:15:27;;;;;;;2.90;1.02;;;28.80;49.40;;;;;;5046231;28;20037;-69
2021/12/19 06:17:55;;;;;;;3.65;1.45;;;28.70;50.20;;;;;;5023563;28;20029;-70
2021/12/19 06:20:25;;;;;;;2.75;1.90;;;28.60;49.60;;;;;;5049679;28;20103;-69
2021/12/19 06:22:52;;;;;;;2.67;1.80;;;28.50;49.20;;;;;;5039655;28;20040;-69
2021/12/19 06:25:19;;;;;;;3.28;1.27;;;28.40;50.20;;;;;;5035164;28;20036;-70
2021/12/19 06:27:46;;;;;;;1.75;1.00;;;28.30;50.40;;;;;;5011326;28;20026;-70
2021/12/19 06:30:16;;;;;;;1.10;0.80;;;28.10;51.90;;;;;;5037185;28;20086;-70
2021/12/19 06:32:44;;;;;;;2.97;1.10;;;28.00;53.30;;;;;;5031462;28;20033;-70
2021/12/19 06:35:18;;;;;;;1.15;0.95;;;27.90;53.30;;;;;;5042490;28;20390;-69
2021/12/19 06:37:48;;;;;;;1.63;1.02;;;27.80;53.00;;;;;;5044713;28;20467;-70
2021/12/19 06:40:17;;;;;;;2.50;0.80;;;27.80;53.40;;;;;;5042208;28;20041;-70
2021/12/19 06:42:44;;;;;;;1.33;0.80;;;27.70;52.60;;;;;;5044509;28;20041;-69
2021/12/19 06:45:15;;;;;;;2.72;1.17;;;27.80;52.60;;;;;;5041541;28;20282;-69
2021/12/19 06:47:42;;;;;;;1.38;1.00;;;27.80;51.60;;;;;;5045882;28;20094;-68
2021/12/19 06:50:10;;;;;;;2.10;1.55;;;27.80;52.00;;;;;;5043879;28;20033;-68
2021/12/19 10:03:49;;;;;;;2.22;1.15;;;25.60;55.00;;;;;;5015539;28;20122;-69
2021/12/19 10:06:23;;;;;;;1.98;1.08;;;25.60;55.50;;;;;;5050574;28;20466;-69
2021/12/19 10:09:15;;;;;;;1.92;0.98;;;25.50;56.10;;;;;;5050124;28;20025;-69
2021/12/19 10:16:53;;;;;;;1.85;0.93;;;25.50;55.40;;;;;;5026647;28;20056;-68
2021/12/19 10:19:21;;;;;;;1.13;0.90;;;25.50;56.10;;;;;;5005531;28;20038;-68
2021/12/19 10:21:48;;;;;;;1.95;1.00;;;25.50;55.60;;;;;;4992752;28;20045;-68
2021/12/19 10:24:41;;;;;;;2.88;1.10;;;25.50;56.00;;;;;;4980568;28;20168;-68
2021/12/19 10:27:08;;;;;;;1.05;0.90;;;25.40;56.90;;;;;;4996274;28;20157;-68
2021/12/19 10:29:43;;;;;;;0.80;0.80;;;25.40;56.30;;;;;;4977644;28;20172;-68
2021/12/19 10:32:10;;;;;;;1.50;1.00;;;25.40;56.40;;;;;;4993896;28;20034;-68
2021/12/19 10:34:37;;;;;;;1.05;0.88;;;25.30;56.70;;;;;;4980658;28;20112;-68
2021/12/19 10:37:05;;;;;;;1.75;0.95;;;25.30;56.90;;;;;;4991149;28;20038;-68
2021/12/19 10:39:39;;;;;;;1.45;0.90;;;25.30;56.70;;;;;;4991377;28;20073;-68
2021/12/19 10:42:08;;;;;;;1.67;1.00;;;25.30;56.90;;;;;;4958362;28;20026;-68
2021/12/19 10:47:26;;;;;;;1.35;0.90;;;25.30;57.40;;;;;;4982359;28;20045;-68
2021/12/19 10:49:53;;;;;;;3.08;0.85;;;25.30;57.50;;;;;;4977707;28;20034;-68
2021/12/19 10:52:35;;;;;;;1.73;0.65;;;25.30;57.80;;;;;;4993498;28;20037;-68
2021/12/19 10:55:09;;;;;;;1.30;0.90;;;25.20;58.00;;;;;;4979822;28;20031;-68
2021/12/19 10:57:38;;;;;;;1.50;0.80;;;25.20;58.60;;;;;;4991090;28;20057;-67
2021/12/19 11:00:11;;;;;;;1.85;1.00;;;25.10;58.50;;;;;;4993942;28;20044;-68
2021/12/19 11:02:43;;;;;;;2.30;1.10;;;25.20;58.60;;;;;;4961887;28;20037;-68
2021/12/19 11:05:36;;;;;;;1.52;1.00;;;25.20;58.30;;;;;;4988481;28;20480;-68
2021/12/19 11:08:04;;;;;;;1.65;0.90;;;25.10;58.40;;;;;;4980822;28;20037;-68
2021/12/19 11:10:32;;;;;;;1.30;1.10;;;25.10;58.40;;;;;;4975079;28;20476;-68
2021/12/19 11:13:10;;;;;;;1.88;0.90;;;25.10;58.70;;;;;;4977255;28;20121;-68
2021/12/19 11:15:37;;;;;;;1.88;1.30;;;25.10;58.50;;;;;;4977233;28;20186;-68
2021/12/19 11:18:04;;;;;;;1.27;0.98;;;25.10;58.60;;;;;;4987808;28;20388;-68
2021/12/19 11:20:32;;;;;;;2.00;0.82;;;25.10;59.20;;;;;;5010812;28;20042;-68
2021/12/19 11:22:59;;;;;;;2.55;1.00;;;25.00;60.10;;;;;;4977313;28;20030;-68
2021/12/19 11:25:27;;;;;;;2.40;0.88;;;25.00;59.80;;;;;;4977544;28;20031;-68
2021/12/19 11:27:54;;;;;;;2.92;0.90;;;25.00;60.30;;;;;;4960943;28;20153;-68
2021/12/19 11:30:21;;;;;;;1.13;0.80;;;24.90;60.20;;;;;;4961296;28;20034;-68
2021/12/19 11:33:06;;;;;;;2.67;1.50;;;24.90;60.30;;;;;;5013009;28;20045;-68
2021/12/19 11:35:36;;;;;;;1.85;1.00;;;24.90;60.60;;;;;;5013980;28;20030;-68
2021/12/19 11:38:08;;;;;;;3.80;1.98;;;24.90;61.10;;;;;;4979781;28;20415;-68
2021/12/19 11:40:37;;;;;;;3.40;1.15;;;24.90;60.90;;;;;;4960641;28;20138;-68
2021/12/19 11:43:09;;;;;;;2.25;0.70;;;24.90;61.20;;;;;;4977824;28;20177;-68
2021/12/19 11:45:43;;;;;;;2.67;1.20;;;24.80;60.60;;;;;;4994109;28;20085;-68
2021/12/19 11:48:18;;;;;;;1.40;1.20;;;24.80;61.20;;;;;;4962518;28;20550;-68
2021/12/19 11:50:48;;;;;;;1.50;0.80;;;24.80;61.00;;;;;;4977487;28;20479;-67
2021/12/19 11:53:18;;;;;;;7.53;1.20;;;24.80;60.90;;;;;;5012646;28;20083;-68
2021/12/19 11:55:46;;;;;;;2.05;1.10;;;24.80;61.30;;;;;;5013220;28;20034;-67
2021/12/19 11:58:15;;;;;;;1.23;0.93;;;24.70;61.40;;;;;;5013481;28;20033;-67
2021/12/19 12:01:04;;;;;;;1.43;1.00;;;24.80;61.20;;;;;;5005027;28;20098;-67
2021/12/19 12:03:42;;;;;;;2.72;1.00;;;24.70;61.00;;;;;;4967127;28;20035;-67
2021/12/19 12:06:21;;;;;;;1.33;0.90;;;24.70;61.30;;;;;;4977306;28;20397;-67
2021/12/19 12:09:09;;;;;;;1.92;1.00;;;24.70;61.50;;;;;;4993142;28;20062;-67
2021/12/19 12:11:39;;;;;;;5.70;0.90;;;24.70;62.00;;;;;;4992521;28;20448;-67
2021/12/19 12:14:23;;;;;;;0.85;0.80;;;24.70;61.80;;;;;;4993757;28;20496;-67
2021/12/19 12:16:56;;;;;;;2.45;1.20;;;24.70;62.00;;;;;;4972643;28;20077;-67
2021/12/19 12:19:47;;;;;;;2.25;1.10;;;24.60;62.30;;;;;;4977282;28;20374;-67
2021/12/19 12:25:17;;;;;;;1.58;0.90;;;24.60;62.60;;;;;;4993186;28;20022;-67
2021/12/19 12:27:58;;;;;;;4.22;1.02;;;24.60;62.60;;;;;;4993323;28;20038;-67
2021/12/19 12:30:29;;;;;;;4.38;1.20;;;24.50;62.50;;;;;;4990126;28;20567;-67
2021/12/19 12:32:58;;;;;;;3.30;0.93;;;24.50;63.00;;;;;;4993080;28;20038;-67
2021/12/19 12:35:28;;;;;;;1.67;0.90;;;24.60;63.20;;;;;;4966371;28;20090;-67
2021/12/19 12:37:55;;;;;;;;;;;24.60;63.30;;;;;;4974024;28;20152;-67
2021/12/19 12:40:34;;;;;;;1.00;0.73;;;24.60;63.50;;;;;;4980290;28;19925;-67
2021/12/19 12:43:39;;;;;;;3.15;1.10;;;24.60;63.50;;;;;;4992904;28;20022;-67
2021/12/19 12:46:07;;;;;;;4.63;1.10;;;24.50;63.70;;;;;;4990207;28;20026;-67
2021/12/19 12:48:53;;;;;;;2.47;0.93;;;24.50;64.10;;;;;;4992910;28;20030;-67
2021/12/19 12:51:39;;;;;;;4.13;1.00;;;24.50;63.90;;;;;;4979231;28;20054;-67
2021/12/19 12:54:08;;;;;;;1.30;0.93;;;24.50;63.80;;;;;;4972214;28;20503;-67
2021/12/19 12:56:40;;;;;;;;;;;24.40;64.20;;;;;;4956561;28;20117;-67
2021/12/19 12:59:08;;;;;;;2.15;1.10;;;24.40;64.40;;;;;;4971702;28;20237;-67
2021/12/19 13:01:46;;;;;;;2.80;1.00;;;24.30;64.60;;;;;;4984743;28;20096;-67
2021/12/19 13:04:17;;;;;;;4.15;1.00;;;24.30;64.40;;;;;;4992997;28;20026;-67
2021/12/19 13:06:45;;;;;;;1.55;1.02;;;24.30;64.60;;;;;;4991148;28;20069;-67
2021/12/19 13:09:34;;;;;;;2.28;0.93;;;24.30;64.80;;;;;;4992314;28;20041;-67
2021/12/19 13:12:18;;;;;;;8.68;1.42;;;24.30;64.70;;;;;;4976653;28;20378;-67
2021/12/19 13:14:58;;;;;;;1.35;0.80;;;24.30;64.80;;;;;;4972804;28;20370;-67
2021/12/19 13:17:29;;;;;;;3.97;1.00;;;24.20;64.50;;;;;;4972992;28;20043;-68
2021/12/19 13:20:10;;;;;;;2.05;0.95;;;24.20;64.60;;;;;;4971498;28;20544;-68
2021/12/19 13:22:51;;;;;;;2.08;0.90;;;24.20;65.00;;;;;;4987136;28;20038;-67
2021/12/19 13:25:23;;;;;;;3.10;1.00;;;24.20;65.10;;;;;;4974534;28;20038;-67
2021/12/19 13:27:54;;;;;;;0.77;0.77;;;24.20;64.80;;;;;;4975454;28;20050;-67
2021/12/19 13:30:24;;;;;;;1.25;0.90;;;24.20;65.00;;;;;;4974769;28;20038;-67
2021/12/19 13:33:07;;;;;;;1.85;1.00;;;24.10;65.10;;;;;;4986931;28;20042;-67
2021/12/19 13:35:40;;;;;;;1.27;0.68;;;24.10;65.00;;;;;;4992192;28;20038;-68
2021/12/19 13:38:14;;;;;;;4.78;0.90;;;24.10;65.10;;;;;;4991790;28;20043;-67
2021/12/19 13:40:46;;;;;;;0.90;0.70;;;24.10;64.90;;;;;;4950418;28;20069;-67
2021/12/19 13:43:14;;;;;;;2.13;1.00;;;24.10;65.50;;;;;;4986246;28;20030;-67
2021/12/19 13:45:43;;;;;;;3.35;1.30;;;24.00;65.60;;;;;;4990805;28;20037;-67
2021/12/19 13:48:31;;;;;;;1.83;0.90;;;24.00;65.60;;;;;;4992140;28;20031;-67
2021/12/19 13:51:05;;;;;;;3.60;0.85;;;24.00;65.90;;;;;;4991798;28;20041;-67
2021/12/19 13:53:36;;;;;;;1.90;0.90;;;24.00;65.90;;;;;;4977356;28;20054;-67
2021/12/19 13:56:11;;;;;;;2.00;0.80;;;24.00;65.90;;;;;;4970903;28;20512;-68
2021/12/19 13:58:46;;;;;;;2.17;0.85;;;24.00;65.90;;;;;;4956918;28;20397;-67
2021/12/19 14:01:20;;;;;;;1.15;0.68;;;24.00;66.50;;;;;;4990657;28;20046;-67
2021/12/19 14:03:56;;;;;;;1.63;0.90;;;24.00;66.50;;;;;;4977552;28;20125;-68
2021/12/19 14:06:31;;;;;;;2.20;1.00;;;24.00;66.80;;;;;;4971150;28;20037;-67
2021/12/19 14:08:59;;;;;;;2.25;1.00;;;24.00;67.10;;;;;;4972316;28;20039;-68
2021/12/19 14:11:28;;;;;;;4.97;1.30;;;24.00;66.90;;;;;;4971043;28;20166;-67
2021/12/19 14:14:08;;;;;;;1.95;0.75;;;24.00;67.00;;;;;;4966271;28;20044;-67
2021/12/19 14:16:41;;;;;;;2.30;0.73;;;24.00;67.20;;;;;;4991345;28;20098;-68
2021/12/19 14:19:25;;;;;;;3.47;1.08;;;23.90;67.30;;;;;;4991025;28;20039;-68
2021/12/19 14:21:54;;;;;;;1.60;1.02;;;23.90;67.70;;;;;;4990350;28;20042;-68
2021/12/19 14:24:38;;;;;;;5.68;1.20;;;23.90;67.80;;;;;;4978532;28;20117;-68
2021/12/19 14:27:09;;;;;;;3.17;1.27;;;23.80;67.80;;;;;;4956605;28;20053;-67
2021/12/19 14:29:36;;;;;;;0.85;0.80;;;23.80;68.00;;;;;;4972963;28;20030;-67
2021/12/19 14:32:09;;;;;;;2.83;0.95;;;23.80;67.90;;;;;;4990103;28;20105;-68
2021/12/19 14:34:37;;;;;;;1.45;0.82;;;23.80;68.20;;;;;;4981381;28;20042;-68
2021/12/19 14:37:21;;;;;;;2.92;1.08;;;23.80;68.30;;;;;;4987402;28;20061;-68
2021/12/19 14:40:11;;;;;;;2.67;1.20;;;23.80;68.10;;;;;;4994285;28;20082;-68
2021/12/19 14:43:02;;;;;;;2.95;0.85;;;23.70;68.30;;;;;;4995246;28;20034;-68
2021/12/19 14:45:51;;;;;;;3.95;0.90;;;23.70;68.70;;;;;;4979687;28;20039;-68
2021/12/19 14:48:21;;;;;;;2.03;0.97;;;23.80;68.40;;;;;;4975880;28;20043;-68
2021/12/19 14:50:49;;;;;;;1.73;1.10;;;23.70;68.60;;;;;;4974624;28;20042;-68
2021/12/19 14:53:23;;;;;;;2.92;0.98;;;23.80;68.60;;;;;;4975922;28;20446;-68
2021/12/19 14:55:58;;;;;;;1.88;1.10;;;23.70;68.40;;;;;;4988902;28;20149;-67
2021/12/19 14:58:26;;;;;;;2.30;0.90;;;23.70;68.50;;;;;;4993562;28;20026;-68
2021/12/19 15:00:57;;;;;;;3.55;1.00;;;23.70;68.60;;;;;;4994789;28;20062;-68
2021/12/19 15:03:24;;;;;;;2.22;0.98;;;23.70;68.60;;;;;;4993748;28;20113;-68
2021/12/19 15:05:52;;;;;;;3.15;1.02;;;23.70;68.80;;;;;;4960147;28;20459;-68
2021/12/19 15:08:23;;;;;;;2.17;0.90;;;23.70;69.20;;;;;;4974382;28;20152;-68
2021/12/19 15:10:51;;;;;;;4.50;1.00;;;23.60;69.30;;;;;;4958604;28;20035;-68
2021/12/19 15:13:18;;;;;;;3.72;1.00;;;23.60;69.40;;;;;;4974136;28;20031;-68
2021/12/19 15:15:46;;;;;;;1.92;0.90;;;23.60;69.30;;;;;;4960919;28;20075;-68
2021/12/19 15:18:13;;;;;;;1.63;0.93;;;23.50;69.50;;;;;;4942294;28;20110;-68
2021/12/19 15:20:40;;;;;;;1.48;1.10;;;23.50;69.70;;;;;;4947972;29;20047;-68
2021/12/19 15:23:08;;;;;;;1.85;0.77;;;23.50;69.90;;;;;;4955765;28;20045;-68
2021/12/19 15:25:35;;;;;;;2.38;0.93;;;23.50;69.70;;;;;;4962703;28;20043;-68
2021/12/19 15:28:02;;;;;;;2.38;1.02;;;23.40;69.70;;;;;;4973973;28;20114;-68
2021/12/19 15:30:30;;;;;;;5.88;1.10;;;23.40;70.10;;;;;;4974637;28;20019;-68
2021/12/19 15:32:57;;;;;;;1.10;0.98;;;23.30;70.30;;;;;;4948721;29;20081;-68
2021/12/19 15:35:24;;;;;;;1.90;1.20;;;23.30;70.40;;;;;;4959217;28;20097;-68
2021/12/19 15:37:51;;;;;;;2.50;1.42;;;23.30;70.50;;;;;;4974603;28;20031;-68
2021/12/19 15:40:19;;;;;;;3.97;1.30;;;23.30;70.50;;;;;;4973306;28;20497;-68
2021/12/19 15:42:47;;;;;;;3.35;0.95;;;23.30;70.60;;;;;;4973607;28;20034;-68
2021/12/19 15:45:14;;;;;;;2.28;1.38;;;23.30;71.20;;;;;;4957103;28;20035;-68
2021/12/19 15:47:41;;;;;;;1.42;1.23;;;23.30;71.30;;;;;;4954226;28;20027;-68
2021/12/19 15:50:09;;;;;;;0.85;0.82;;;23.30;71.40;;;;;;4954313;29;20050;-68
2021/12/19 15:52:36;;;;;;;2.85;1.20;;;23.30;71.00;;;;;;4955324;28;20035;-68
2021/12/19 15:55:06;;;;;;;3.10;1.13;;;23.30;70.70;;;;;;4955357;28;20035;-68
2021/12/19 15:57:34;;;;;;;1.58;1.17;;;23.30;70.80;;;;;;4970306;28;20035;-68
2021/12/19 16:00:03;;;;;;;3.53;1.00;;;23.30;70.60;;;;;;4973295;28;20043;-68
2021/12/19 16:02:30;;;;;;;2.63;1.30;;;23.30;70.80;;;;;;4953731;29;20031;-68
2021/12/19 16:04:58;;;;;;;3.35;1.33;;;23.30;70.70;;;;;;4953914;29;20043;-68
2021/12/19 16:07:25;;;;;;;4.80;1.20;;;23.30;70.50;;;;;;4966504;28;20175;-68
2021/12/19 16:09:52;;;;;;;9.30;1.52;;;23.30;70.40;;;;;;4970136;28;20083;-68
2021/12/19 16:12:19;;;;;;;13.32;1.80;;;23.30;70.80;;;;;;4954976;28;20039;-68
2021/12/19 16:14:46;;;;;;;3.55;1.25;;;23.30;70.90;;;;;;4942842;28;20035;-68
2021/12/19 16:17:14;;;;;;;2.10;1.10;;;23.30;70.80;;;;;;4983561;28;20030;-68
2021/12/19 16:19:41;;;;;;;2.53;1.23;;;23.30;70.80;;;;;;4995521;28;20042;-68
2021/12/19 16:22:08;;;;;;;2.05;1.30;;;23.30;70.70;;;;;;4995600;28;20037;-68
2021/12/19 16:24:35;;;;;;;4.22;1.35;;;23.30;70.80;;;;;;5012679;28;20060;-68
2021/12/19 16:27:03;;;;;;;6.22;1.75;;;23.20;70.90;;;;;;4993284;28;20040;-68
2021/12/19 16:29:31;;;;;;;4.38;1.20;;;23.20;70.90;;;;;;4993006;28;20396;-68
2021/12/19 16:32:00;;;;;;;2.55;1.30;;;23.20;70.90;;;;;;4991305;28;20046;-68
2021/12/19 16:34:28;;;;;;;3.22;1.50;;;23.10;71.10;;;;;;4995532;28;20488;-68
2021/12/19 16:36:56;;;;;;;1.88;1.00;;;23.10;71.10;;;;;;5012113;28;20048;-68
2021/12/19 16:39:24;;;;;;;5.60;1.33;;;23.10;71.30;;;;;;4993116;28;20030;-68
2021/12/19 16:43:29;;;;;;;1.25;1.02;;;23.10;71.40;;;;;;4993929;28;20041;-68
2021/12/19 16:44:58;;;;;;;1.92;1.20;;;23.10;71.60;;;;;;4992885;28;20085;-68
2021/12/19 16:47:26;;;;;;;2.10;1.30;;;23.10;71.60;;;;;;4978802;28;20108;-68
2021/12/19 16:49:53;;;;;;;2.28;1.40;;;23.00;71.70;;;;;;4995211;28;20041;-68
2021/12/19 16:52:20;;;;;;;3.30;1.38;;;23.00;72.00;;;;;;4988528;28;20066;-68
2021/12/19 16:54:48;;;;;;;4.55;1.50;;;23.00;72.10;;;;;;4992725;28;20074;-68
2021/12/19 16:57:16;;;;;;;4.22;1.30;;;23.00;72.20;;;;;;4974768;28;20102;-68
2021/12/19 16:59:43;;;;;;;2.90;1.40;;;22.90;72.00;;;;;;4978164;28;20365;-68
2021/12/19 17:02:14;;;;;;;3.28;1.55;;;22.90;72.20;;;;;;4983711;28;20247;-68
2021/12/19 17:04:41;;;;;;;6.03;1.60;;;22.90;72.60;;;;;;4975232;28;20401;-68
2021/12/19 17:07:08;;;;;;;3.97;1.23;;;22.80;72.80;;;;;;4990382;28;20038;-68
2021/12/19 17:09:35;;;;;;;2.85;1.40;;;22.80;73.30;;;;;;4994382;28;20329;-68
2021/12/19 17:12:10;;;;;;;2.67;1.30;;;22.80;73.40;;;;;;4992797;28;20026;-68
2021/12/19 17:14:38;;;;;;;2.55;1.60;;;22.80;73.50;;;;;;4975822;28;20129;-68
2021/12/19 17:17:05;;;;;;;2.17;1.40;;;22.80;73.40;;;;;;4992639;28;20039;-68
2021/12/19 17:19:32;;;;;;;2.20;1.25;;;22.80;72.90;;;;;;4992512;28;20045;-68
2021/12/19 17:21:59;;;;;;;2.67;1.50;;;22.80;73.00;;;;;;4992254;28;20030;-68
2021/12/19 17:24:27;;;;;;;2.28;1.52;;;22.80;73.00;;;;;;4992528;28;20022;-68
2021/12/19 17:26:54;;;;;;;5.03;1.52;;;22.80;72.80;;;;;;4992674;28;20114;-68
2021/12/19 17:29:22;;;;;;;4.05;1.42;;;22.80;73.10;;;;;;4989506;28;20042;-68
2021/12/19 17:31:49;;;;;;;3.95;1.42;;;22.80;73.30;;;;;;4971960;28;20033;-68
2021/12/19 17:34:16;;;;;;;4.75;1.50;;;22.80;73.40;;;;;;4993300;28;20030;-67
2021/12/19 17:36:43;;;;;;;6.28;1.55;;;22.80;73.30;;;;;;4970927;28;20116;-67
2021/12/19 17:39:11;;;;;;;1.48;1.30;;;22.80;73.50;;;;;;5002310;28;20096;-67
2021/12/19 17:41:38;;;;;;;3.45;1.30;;;22.80;73.90;;;;;;4974693;28;20042;-67
2021/12/19 17:44:06;;;;;;;4.38;1.50;;;22.80;74.20;;;;;;4991129;28;20038;-68
2021/12/19 17:46:34;;;;;;;3.85;1.80;;;22.70;74.10;;;;;;4991765;28;20041;-68
2021/12/19 17:49:01;;;;;;;16.45;12.20;;;22.70;74.60;;;;;;4993028;28;20032;-68
2021/12/19 17:51:28;;;;;;;2.80;2.25;;;22.70;74.60;;;;;;4992829;28;20064;-68
2021/12/19 17:53:56;;;;;;;4.15;2.65;;;22.60;74.50;;;;;;4993635;28;20033;-68
2021/12/19 17:56:23;;;;;;;4.28;2.28;;;22.60;74.80;;;;;;5004859;28;20461;-67
2021/12/19 17:58:50;;;;;;;3.35;1.60;;;22.50;74.80;;;;;;4988491;28;20450;-68
2021/12/19 18:01:18;;;;;;;4.18;1.35;;;22.50;74.90;;;;;;5004109;28;20050;-68
2021/12/19 18:03:56;;;;;;;3.78;1.52;;;22.50;74.90;;;;;;5010703;28;20491;-68
2021/12/19 18:06:29;;;;;;;3.08;1.48;;;22.50;75.10;;;;;;4985266;28;20119;-68
2021/12/19 18:08:57;;;;;;;5.43;1.42;;;22.50;75.20;;;;;;5009021;28;20026;-67
2021/12/19 18:11:24;;;;;;;3.00;1.38;;;22.40;75.30;;;;;;5010729;28;20444;-67
2021/12/19 18:13:52;;;;;;;2.38;1.30;;;22.40;75.50;;;;;;4992530;28;20097;-67
2021/12/19 18:16:20;;;;;;;2.15;1.30;;;22.40;75.70;;;;;;4977493;28;20046;-66
2021/12/19 18:18:47;;;;;;;2.08;1.40;;;22.30;75.90;;;;;;4993291;28;20064;-67
2021/12/19 18:21:14;;;;;;;4.72;1.70;;;22.30;76.20;;;;;;4974068;28;20556;-67
2021/12/19 18:23:41;;;;;;;2.83;1.50;;;22.30;76.10;;;;;;4990096;28;20088;-67
2021/12/19 18:26:09;;;;;;;3.28;1.60;;;22.30;76.30;;;;;;4993031;28;20061;-68
2021/12/19 18:28:39;;;;;;;2.95;1.70;;;22.40;76.50;;;;;;4980722;28;20065;-68
2021/12/19 18:31:07;;;;;;;2.83;1.70;;;22.40;76.40;;;;;;4991654;28;20593;-68
2021/12/19 18:33:34;;;;;;;3.78;1.75;;;22.40;76.90;;;;;;4992076;28;20034;-68
2021/12/19 18:36:11;;;;;;;5.07;1.45;;;22.40;76.10;;;;;;4978155;28;20384;-68
2021/12/19 18:38:40;;;;;;;2.13;1.40;;;22.40;76.10;;;;;;5010752;28;20046;-68
2021/12/19 18:41:17;;;;;;;4.85;2.10;;;22.30;76.10;;;;;;4962885;28;20125;-67
2021/12/19 18:43:52;;;;;;;1.98;1.50;;;22.30;76.30;;;;;;4960816;28;20062;-68
2021/12/19 18:46:48;;;;;;;2.83;1.50;;;22.30;74.80;;;;;;4991320;28;20041;-68
2021/12/19 18:49:29;;;;;;;5.68;1.60;;;22.40;74.60;;;;;;4973731;28;20374;-68
2021/12/19 18:54:40;;;;;;;3.15;1.58;;;22.40;74.10;;;;;;4994443;28;20065;-68
2021/12/19 18:57:10;;;;;;;3.42;1.70;;;22.50;73.90;;;;;;4995881;28;20110;-68
2021/12/19 18:59:41;;;;;;;4.03;1.60;;;22.50;74.20;;;;;;4977279;28;20061;-67
2021/12/19 19:02:20;;;;;;;9.80;1.73;;;22.50;74.10;;;;;;5000717;28;20046;-68
2021/12/19 19:04:49;;;;;;;9.05;2.30;;;22.50;74.60;;;;;;4990718;28;20030;-68
2021/12/19 19:07:17;;;;;;;16.20;3.00;;;22.60;75.60;;;;;;4991499;28;20453;-68
2021/12/19 19:09:46;;;;;;;17.17;3.60;;;22.60;77.30;;;;;;4987631;28;20056;-69
2021/12/19 19:12:16;;;;;;;24.58;3.85;;;22.50;78.10;;;;;;4993525;28;20480;-70
2021/12/19 19:14:47;;;;;;;17.70;4.10;;;22.50;79.50;;;;;;5010554;28;20538;-68
2021/12/19 19:17:15;;;;;;;20.05;5.10;;;22.50;80.20;;;;;;4978269;28;20044;-68
2021/12/19 19:19:43;;;;;;;18.98;3.97;;;22.50;80.60;;;;;;4993483;28;20038;-68
2021/12/19 19:22:11;;;;;;;22.58;4.25;;;22.50;80.80;;;;;;4996936;28;20084;-70
2021/12/19 19:24:38;;;;;;;20.00;3.72;;;22.50;81.20;;;;;;4997679;28;20097;-68
2021/12/19 19:27:06;;;;;;;20.75;4.20;;;22.40;81.60;;;;;;4977229;28;20125;-68
2021/12/19 19:29:33;;;;;;;27.70;4.50;;;22.50;81.70;;;;;;4979748;28;20045;-67
2021/12/19 19:32:01;;;;;;;24.55;4.65;;;22.50;81.70;;;;;;4996369;28;20036;-68
2021/12/19 19:34:28;;;;;;;22.25;4.32;;;22.60;81.60;;;;;;4980391;28;20060;-68
2021/12/19 19:36:58;;;;;;;18.00;3.75;;;22.50;81.90;;;;;;4991538;28;20061;-69
2021/12/19 19:42:27;;;;;;;27.47;4.57;;;22.50;82.20;;;;;;5002085;28;20084;-68
2021/12/19 19:50:06;;;;;;;30.80;4.85;;;22.60;82.40;;;;;;4998778;28;20092;-68
2021/12/19 19:52:33;;;;;;;20.35;4.55;;;22.70;82.60;;;;;;4979705;28;20092;-69
2021/12/19 19:55:01;;;;;;;23.50;4.20;;;22.60;82.50;;;;;;4999859;28;20501;-68
2021/12/19 19:57:28;;;;;;;25.90;4.57;;;22.60;82.10;;;;;;4991914;28;20030;-68
2021/12/19 19:59:55;;;;;;;23.15;4.53;;;22.60;82.30;;;;;;5008543;28;20066;-68
2021/12/19 20:02:22;;;;;;;25.80;4.50;;;22.60;82.20;;;;;;4988593;28;20037;-68
2021/12/19 20:04:49;;;;;;;24.58;4.57;;;22.60;82.40;;;;;;4995775;28;20034;-68
2021/12/19 20:07:18;;;;;;;23.30;4.35;;;22.60;82.70;;;;;;4977341;28;20030;-69
2021/12/19 20:09:46;;;;;;;25.83;4.25;;;22.80;82.80;;;;;;4981051;28;20033;-69
2021/12/19 20:12:13;;;;;;;25.20;5.30;;;22.80;81.80;;;;;;4979663;28;20511;-68
2021/12/19 20:14:40;;;;;;;26.42;5.38;;;22.80;82.20;;;;;;4986812;28;20444;-68
2021/12/19 20:17:11;;;;;;;22.00;4.60;;;22.80;82.10;;;;;;4974986;28;20549;-68
2021/12/19 20:19:40;;;;;;;22.10;4.03;;;22.80;82.20;;;;;;5001867;28;20053;-69
2021/12/19 20:22:07;;;;;;;24.10;4.10;;;22.90;82.00;;;;;;5013356;28;20045;-68
2021/12/19 20:24:35;;;;;;;23.33;4.28;;;22.90;81.40;;;;;;5000849;28;20034;-69
2021/12/19 20:27:02;;;;;;;22.27;4.15;;;22.90;81.60;;;;;;5006190;28;20038;-69
2021/12/19 20:29:29;;;;;;;22.65;3.70;;;23.00;82.20;;;;;;5013054;28;20026;-69
2021/12/19 20:31:57;;;;;;;24.60;5.55;;;23.20;81.80;;;;;;5000119;28;20468;-69
